Weather History for Gwinner, ND

Change the Weather History Date:

Wednesday, October 23, 2013

  Actual Average (KP67) Record (KP67)
Temperature  
Mean Temperature 38 °F -  
Max Temperature 42 °F 49 °F 52 °F (1996)
Min Temperature 33 °F 29 °F 21 °F (1996)
Degree Days  
Heating Degree Days 28    
Moisture  
Dew Point 28 °F    
Average Humidity 74    
Maximum Humidity 93    
Minimum Humidity 46    
Precipitation  
Precipitation 0.00 in - - ()
Sea Level Pressure  
Sea Level Pressure 30.11 in    
Wind  
Wind Speed 8 mph (NNW)    
Max Wind Speed 17 mph    
Max Gust Speed 22 mph    
Visibility 10 miles    
Events      
Averages and records for this station are not official NWS values.
T = Trace of Precipitation, MM = Missing Value Source: NWS Daily Summary

Daily Weather History Graph

Daily Weather History Graph

Search for Another Location

Airport:

Trip Planner

Search our weather history database for the weather conditions in past years. The results will help you decide how hot, cold, wet, or windy it might be!

Date:

Astronomy

Oct. 23, 2013 Rise Set
Actual Time 7:59 AM CDT 6:29 PM CDT
Civil Twilight 7:28 AM CDT 7:00 PM CDT
Nautical Twilight 6:53 AM CDT 7:35 PM CDT
Astronomical Twilight 6:18 AM CDT 8:10 PM CDT
Moon 9:53 PM CDT (10/23) 12:25 PM CDT (10/23)
Length of Visible Light 11h 32m
Length of Day
10h 30m
Waning Gibbous, 79% of the Moon is Illuminated
Oct 23
Waning Gibbous
Oct 26
Last Quarter
Nov 3
New
Nov 9
First Quarter
Nov 17
Full

Hourly Weather History & Observations

Time (CDT) Temp. Windchill Dew Point Humidity Pressure Visibility Wind Dir Wind Speed Gust Speed Precip Events Conditions
12:15 AM 33.8 °F 28.6 °F 30.2 °F 87% 30.06 in 10.0 mi WNW 5.8 mph - 0.00 in   Overcast
12:35 AM 35.6 °F 29.2 °F 30.2 °F 81% 30.06 in 10.0 mi NW 8.1 mph - 0.00 in   Overcast
12:55 AM 35.6 °F 28.6 °F 28.4 °F 75% 30.06 in 10.0 mi NW 9.2 mph - 0.00 in   Overcast
1:35 AM 35.6 °F 29.9 °F 26.6 °F 70% 30.05 in 10.0 mi NW 6.9 mph - 0.00 in   Overcast
1:55 AM 35.6 °F 30.7 °F 26.6 °F 70% 30.05 in 10.0 mi NW 5.8 mph - 0.00 in   Overcast
2:15 AM 35.6 °F 31.7 °F 28.4 °F 75% 30.05 in 10.0 mi NNW 4.6 mph - 0.00 in   Overcast
2:35 AM 35.6 °F 30.7 °F 28.4 °F 75% 30.06 in 10.0 mi NNW 5.8 mph - 0.00 in   Overcast
2:55 AM 35.6 °F 30.7 °F 28.4 °F 75% 30.06 in 10.0 mi NNW 5.8 mph - 0.00 in   Overcast
3:15 AM 33.8 °F 30.8 °F 28.4 °F 81% 30.05 in 10.0 mi WNW 3.5 mph - 0.00 in   Overcast
3:35 AM 33.8 °F - 30.2 °F 87% 30.05 in 10.0 mi Calm Calm - 0.00 in   Overcast
3:55 AM 33.8 °F 29.6 °F 30.2 °F 87% 30.05 in 10.0 mi NNW 4.6 mph - 0.00 in   Overcast
4:15 AM 33.8 °F 28.6 °F 30.2 °F 87% 30.05 in 10.0 mi NNW 5.8 mph - 0.00 in   Overcast
4:35 AM 33.8 °F 29.6 °F 28.4 °F 81% 30.04 in 10.0 mi North 4.6 mph - 0.00 in   Overcast
4:55 AM 33.8 °F 29.6 °F 30.2 °F 87% 30.04 in 10.0 mi North 4.6 mph - 0.00 in   Overcast
5:15 AM 33.8 °F 29.6 °F 28.4 °F 81% 30.05 in 10.0 mi NNE 4.6 mph - 0.00 in   Overcast
5:35 AM 33.8 °F 30.8 °F 30.2 °F 87% 30.05 in 10.0 mi North 3.5 mph - 0.00 in   Overcast
5:55 AM 33.8 °F - 30.2 °F 87% 30.05 in 10.0 mi Calm Calm - 0.00 in   Overcast
6:15 AM 33.8 °F 30.8 °F 30.2 °F 87% 30.05 in 10.0 mi North 3.5 mph - 0.00 in   Overcast
6:35 AM 33.8 °F 30.8 °F 30.2 °F 87% 30.06 in 10.0 mi North 3.5 mph - 0.00 in   Overcast
6:55 AM 33.8 °F - 30.2 °F 87% 30.06 in 10.0 mi Calm Calm - 0.00 in   Overcast
7:15 AM 33.8 °F - 30.2 °F 87% 30.06 in 10.0 mi Calm Calm - 0.00 in   Overcast
7:35 AM 33.8 °F 29.6 °F 30.2 °F 87% 30.07 in 10.0 mi NNW 4.6 mph - 0.00 in   Scattered Clouds
7:55 AM 33.8 °F 29.6 °F 28.4 °F 81% 30.07 in 10.0 mi NNW 4.6 mph - 0.00 in   Mostly Cloudy
8:15 AM 33.8 °F 27.0 °F 26.6 °F 75% 30.08 in 10.0 mi North 8.1 mph - 0.00 in   Overcast
8:35 AM 33.8 °F 27.7 °F 28.4 °F 81% 30.08 in 10.0 mi North 6.9 mph - 0.00 in   Overcast
8:55 AM 33.8 °F 28.6 °F 28.4 °F 81% 30.09 in 10.0 mi North 5.8 mph - 0.00 in   Overcast
9:15 AM 33.8 °F 28.6 °F 28.4 °F 81% 30.09 in 10.0 mi North 5.8 mph - 0.00 in   Overcast
9:35 AM 33.8 °F 27.7 °F 28.4 °F 81% 30.10 in 10.0 mi North 6.9 mph - 0.00 in   Overcast
9:55 AM 33.8 °F 27.7 °F 28.4 °F 81% 30.10 in 10.0 mi North 6.9 mph - 0.00 in   Overcast
10:15 AM 33.8 °F 28.6 °F 26.6 °F 75% 30.11 in 10.0 mi North 5.8 mph - 0.00 in   Overcast
10:35 AM 33.8 °F 27.7 °F 26.6 °F 75% 30.11 in 10.0 mi NNW 6.9 mph - 0.00 in   Overcast
10:55 AM 35.6 °F 29.9 °F 26.6 °F 70% 30.11 in 10.0 mi NNW 6.9 mph - 0.00 in   Mostly Cloudy
11:15 AM 35.6 °F 27.5 °F 26.6 °F 70% 30.11 in 10.0 mi NNW 11.5 mph - 0.00 in   Mostly Cloudy
11:35 AM 37.4 °F 29.3 °F 24.8 °F 60% 30.11 in 10.0 mi NNW 12.7 mph 19.6 mph 0.00 in   Scattered Clouds
11:55 AM 37.4 °F 28.2 °F 23.0 °F 56% 30.12 in 10.0 mi NNW 16.1 mph - 0.00 in   Scattered Clouds
12:15 PM 39.2 °F 31.2 °F 23.0 °F 52% 30.12 in 10.0 mi North 13.8 mph - 0.00 in   Mostly Cloudy
12:35 PM 39.2 °F 30.2 °F 23.0 °F 52% 30.12 in 10.0 mi NNW 17.3 mph - 0.00 in   Mostly Cloudy
12:55 PM 39.2 °F 30.8 °F 23.0 °F 52% 30.12 in 10.0 mi NNW 15.0 mph 20.7 mph 0.00 in   Mostly Cloudy
1:15 PM 41.0 °F 32.8 °F 23.0 °F 49% 30.12 in 10.0 mi NNW 16.1 mph - 0.00 in   Mostly Cloudy
1:35 PM 42.8 °F 37.5 °F 23.0 °F 46% 30.11 in 10.0 mi North 9.2 mph 18.4 mph 0.00 in   Partly Cloudy
1:55 PM 41.0 °F 33.9 °F 23.0 °F 49% 30.11 in 10.0 mi NNW 12.7 mph - 0.00 in   Mostly Cloudy
2:15 PM 39.2 °F 32.0 °F 23.0 °F 52% 30.11 in 10.0 mi NNW 11.5 mph - 0.00 in   Mostly Cloudy
2:35 PM 42.8 °F 35.4 °F 23.0 °F 46% 30.11 in 10.0 mi North 15.0 mph 21.9 mph 0.00 in   Mostly Cloudy
2:55 PM 41.0 °F 33.1 °F 23.0 °F 49% 30.11 in 10.0 mi North 15.0 mph 21.9 mph 0.00 in   Overcast
3:15 PM 39.2 °F 30.5 °F 23.0 °F 52% 30.12 in 10.0 mi NNW 16.1 mph - 0.00 in   Overcast
3:35 PM 39.2 °F 30.8 °F 24.8 °F 56% 30.12 in 10.0 mi NNW 15.0 mph - 0.00 in   Mostly Cloudy
3:55 PM 39.2 °F 30.5 °F 24.8 °F 56% 30.12 in 10.0 mi NNW 16.1 mph 19.6 mph 0.00 in   Mostly Cloudy
4:15 PM 39.2 °F 32.0 °F 26.6 °F 61% 30.13 in 10.0 mi NNW 11.5 mph - 0.00 in   Mostly Cloudy
4:35 PM 39.2 °F 31.2 °F 26.6 °F 61% 30.13 in 10.0 mi NNW 13.8 mph - 0.00 in   Overcast
4:55 PM 39.2 °F 31.6 °F 26.6 °F 61% 30.14 in 10.0 mi NW 12.7 mph 17.3 mph 0.00 in   Mostly Cloudy
5:15 PM 39.2 °F 31.6 °F 26.6 °F 61% 30.14 in 10.0 mi NW 12.7 mph - 0.00 in   Mostly Cloudy
5:35 PM 39.2 °F 30.8 °F 26.6 °F 61% 30.14 in 9.0 mi NW 15.0 mph - 0.00 in   Mostly Cloudy
5:55 PM 39.2 °F 32.0 °F 28.4 °F 65% 30.14 in 10.0 mi NW 11.5 mph - 0.00 in   Mostly Cloudy
6:15 PM 37.4 °F 28.9 °F 28.4 °F 70% 30.14 in 10.0 mi NW 13.8 mph - 0.00 in   Mostly Cloudy
6:35 PM 37.4 °F 29.8 °F 28.4 °F 70% 30.15 in 9.0 mi NNW 11.5 mph - 0.00 in   Mostly Cloudy
6:55 PM 37.4 °F 28.2 °F 28.4 °F 70% 30.15 in 10.0 mi NNW 16.1 mph - 0.00 in   Mostly Cloudy
7:15 PM 37.4 °F 29.8 °F 28.4 °F 70% 30.16 in 10.0 mi NNW 11.5 mph - 0.00 in   Mostly Cloudy
7:35 PM 35.6 °F 28.0 °F 32.0 °F 87% 30.17 in 2.0 mi NNW 10.4 mph - 0.00 in   Overcast
7:55 PM 33.8 °F 27.7 °F 32.0 °F 93% 30.17 in 10.0 mi NNW 6.9 mph - 0.00 in   Scattered Clouds
8:15 PM 33.8 °F 27.7 °F 32.0 °F 93% 30.17 in 10.0 mi NNW 6.9 mph - 0.00 in   Mostly Cloudy
8:35 PM 33.8 °F 28.6 °F 32.0 °F 93% 30.17 in 10.0 mi NW 5.8 mph - 0.00 in   Overcast
8:55 PM 33.8 °F 27.7 °F 32.0 °F 93% 30.17 in 10.0 mi WNW 6.9 mph - 0.00 in   Overcast
9:15 PM 35.6 °F 29.9 °F 32.0 °F 87% 30.17 in 10.0 mi WNW 6.9 mph - 0.00 in   Overcast
9:35 PM 35.6 °F 29.2 °F 32.0 °F 87% 30.17 in 10.0 mi WNW 8.1 mph - 0.00 in   Overcast
9:55 PM 35.6 °F 28.6 °F 32.0 °F 87% 30.18 in 10.0 mi West 9.2 mph - 0.00 in   Overcast
10:15 PM 35.6 °F 28.6 °F 32.0 °F 87% 30.18 in 10.0 mi WNW 9.2 mph - 0.00 in   Overcast
10:35 PM 35.6 °F 28.0 °F 32.0 °F 87% 30.18 in 10.0 mi WNW 10.4 mph - 0.00 in   Overcast
10:55 PM 35.6 °F 27.5 °F 32.0 °F 87% 30.18 in 10.0 mi WNW 11.5 mph - 0.00 in   Mostly Cloudy
11:15 PM 35.6 °F 28.0 °F 30.2 °F 81% 30.19 in 10.0 mi WNW 10.4 mph - 0.00 in   Partly Cloudy
11:35 PM 35.6 °F 28.6 °F 30.2 °F 81% 30.19 in 10.0 mi NW 9.2 mph - 0.00 in   Mostly Cloudy
11:55 PM 35.6 °F 28.0 °F 30.2 °F 81% 30.20 in 10.0 mi WNW 10.4 mph - 0.00 in   Overcast